Terminal Aerodrome Forecast
Issued by NWS Chicago, IL

Home | Current Version | Previous Version | Graphics & Text | Print | Product List | Glossary On
Versions: 1 2 3 4 5 6 7 8 9 10 11 12 13 14 15 16 17 18 19 20 21 22 23 24 25 26 27 28 29 30
000
FTUS43 KLOT 272000 AAA
TAFRFD
TAF AMD
KRFD 272016Z 2720/2818 21015G24KT P6SM SCT040 BKN200
     FM280100 21013G17KT P6SM VCSH BKN050
     FM280300 21011KT 6SM -SHRA VCTS OVC035CB
     FM280600 28012G19KT P6SM SCT030 BKN050
     FM281500 26017G27KT P6SM SCT250=

USA.gov is the U.S. government's official web portal to all federal, state and local government web resources and services.